Relevés horaires Semmerzake (Belgique)


Relevés horaires à Semmerzake - Vendredi 02 Juill. 2021
Heure UTC1 Température [°C] Vent [km/h] Hum. [%] Pres.4 [hPa] Visi. [Km] Nébu. [octa] Préc.5 [mm] Cond.
2m. Res. Ros. Dir.2 Vit. Moy. Raf.3
23:00 17.0 17.0 14.5 NNO 1.9 -- 5.6 85 1016.2(-0.2/3h) 8 -- -- --
22:00 17.6 17.6 14.5 E 3.7 -- 5.6 82 1016.3(-0.2/3h) 10 -- -- --
21:00 17.7 17.7 14.6 NNO 1.9 -- 5.6 82 1016.7(0.1/3h) 10 -- -- --
20:00 18.9 18.9 14.9 ENE 3.7 -- 5.6 78 1016.6(-0.1/3h) 12 -- -- --
19:00 20.7 20.7 15.2 NNO 1.9 -- 3.7 71 1016.7(-0.3/3h) 15 -- -- --
18:00 21.8 21.8 14.6 NNO 1.9 -- 7.4 64 1016.5(-0.8/3h) 19 -- -- --
17:00 22.3 22.3 13.6 NNO 1.9 -- 5.6 58 1016.7(-0.7/3h) 15 -- -- --
16:00 22.4 22.4 12.6 NNO 1.9 -- 5.6 54 1017(-0.4/3h) 13 -- -- --
15:00 22.0 22.0 12.2 NNO 1.9 -- 7.4 54 1017.5(0.1/3h) 19 -- -- --
14:00 22.9 22.9 12.7 NNO 1.9 -- 7.4 53 1017.5(-0.2/3h) 19 -- -- --
13:00 22.5 22.5 13.0 NNO 1.9 -- 5.6 55 1017.5(-0.5/3h) 20 -- -- --
12:00 21.2 21.2 13.0 NNO 1.9 -- 14.8 59 1017.5(-0.3/3h) 9 -- -- --
11:00 20.3 20.3 12.3 NNO 1.9 -- 9.3 60 1017.7(0.1/3h) 12 -- -- --
10:00 19.2 19.2 12.2 OSO 3.7 -- 9.3 64 1018(0.8/3h) 13 -- -- --
09:00 18.6 18.6 11.8 OSO 3.7 -- 7.4 65 1017.8(1.0/3h) 12 -- -- --
08:00 18.1 18.1 12.9 NNO 3.7 -- 7.4 72 1017.6(1.0/3h) 9 -- -- --
07:00 16.2 16.2 13.0 OSO 3.7 -- 5.6 81 1017.1(0.6/3h) 7 -- -- --
06:00 15.2 15.2 11.8 SO 3.7 -- 5.6 80 1016.8(0.2/3h) 10 -- -- --
05:00 13.5 13.5 10.6 SSO 3.7 -- 5.6 83 1016.7(-0.2/3h) 17 -- -- --
04:00 12.1 12.1 10.1 NNO 1.9 -- 3.7 88 1016.6(-0.5/3h) 15 -- -- --
03:00 12.8 12.8 10.3 NNO 1.9 -- 5.6 85 1016.7(-0.5/3h) 16 -- -- --
02:00 13.4 13.4 10.5 NNO 1.9 -- 5.6 83 1016.8(-0.4/3h) 17 -- -- --
01:00 14.0 14.0 10.7 NNO 1.9 -- 5.6 80 1017(-0.4/3h) 19 -- -- --
00:00 14.1 14.1 11.0 NNO 1.9 -- 7.4 82 1017.2(-0.5/3h) 20 -- -- --

1 Coordinated Universal Time. Actuellement il est 22:00 locale et 20:00 UTC.

2 Le vent souffle depuis la direction indiquée vers la direction oposée.

3 Les rafales max. sont disponible 40 min après l'heure du relevé.

4 Pour les stations d'altitude (plus de 600m) le géopotentiel du niveau le plus proche de la pression obligatoire est indiqué.

5 Les stations disposant d'un diffuseur peuvent indiquer "trace". Cela signifie que des précipitations ont touchés le sol mais que la quantité est inférieure à 0.1 mm.

Récapitulatif de la journée
Température [°C] Vent [km/h] Ensoleillement4 [h] Precipitations totale5 [mm] Pression [Hpa]
Min1 Max.2 Moy.3 Max. Min Max.
11.3 23.4 0 14.8 0 h 0 min 0 1016.2 1018.0

1 Température minimale relevée entre 18:00 UTC la veille et 18:00 UTC le jour donné.

2 Température maximale relevée entre 06:00 UTC le jour donné et 06:00 UTC le lendemain.

3 Vent moyen de la journée basé sur les relevés horaires.

4 Ensoleillement en heures relevé entre 06:00 UTC la veille et 06:00 UTC le jour donné.

5 Précipitations totales tombées entre 06:00 UTC la jour donné et 06:00 UTC le lendemain.

Graphiques horaires